createdAt,value
2023-05-23T05:03:45.593Z,97425.59
2023-05-23T05:08:47.532Z,97425.47
2023-05-23T05:13:49.666Z,97437.28
2023-05-23T05:18:52.439Z,97427.22
2023-05-23T05:23:55.327Z,97437.06
2023-05-23T05:28:57.081Z,97436.59
2023-05-23T05:33:59.410Z,97432.00
2023-05-23T05:39:02.068Z,97437.41
2023-05-23T05:44:03.653Z,97437.75
2023-05-23T05:49:05.355Z,97443.81
2023-05-23T05:54:07.191Z,97442.06
2023-05-23T05:59:08.877Z,97447.78
2023-05-23T06:04:12.637Z,97461.28
2023-05-23T06:09:16.211Z,97456.63
2023-05-23T06:14:18.030Z,97464.03
2023-05-23T06:19:21.809Z,97473.97
2023-05-23T06:24:23.427Z,97476.56
2023-05-23T06:29:24.997Z,97476.91
2023-05-23T06:34:26.525Z,97476.91
2023-05-23T06:39:28.016Z,97479.63
2023-05-23T06:44:29.964Z,97480.19
2023-05-23T06:49:31.533Z,97491.38
2023-05-23T06:54:33.329Z,97492.88
2023-05-23T06:59:35.441Z,97492.88
2023-05-23T07:04:38.478Z,97498.88
2023-05-23T07:09:46.493Z,97495.22
2023-05-23T07:14:52.694Z,97496.38
2023-05-23T07:19:56.197Z,97504.13
2023-05-23T07:24:58.777Z,97505.41
2023-05-23T07:30:07.496Z,97507.28
2023-05-23T07:35:11.029Z,97509.59
2023-05-23T07:40:12.641Z,97509.94
2023-05-23T07:45:14.801Z,97506.72
2023-05-23T07:50:18.490Z,97513.00
2023-05-23T07:55:20.139Z,97510.31
2023-05-23T08:00:22.231Z,97511.47
2023-05-23T08:05:30.127Z,97512.44
2023-05-23T08:10:32.747Z,97516.47
2023-05-23T08:15:41.526Z,97527.34
2023-05-23T08:20:49.934Z,97518.34
2023-05-23T08:25:52.933Z,97516.06
2023-05-23T08:30:57.021Z,97533.75
2023-05-23T08:35:59.584Z,97533.94
2023-05-23T08:41:02.081Z,97539.19
2023-05-23T08:46:06.087Z,97545.66
2023-05-23T08:51:14.247Z,97549.88
2023-05-23T08:56:16.498Z,97546.59
2023-05-23T09:01:23.543Z,97547.28
2023-05-23T09:06:28.345Z,97554.34
2023-05-23T09:11:36.130Z,97558.06
2023-05-23T09:16:40.121Z,97563.00
2023-05-23T09:21:47.289Z,97578.38
2023-05-23T09:27:09.057Z,97573.59
2023-05-23T09:32:16.081Z,97572.31
2023-05-23T09:37:19.357Z,97586.88
2023-05-23T09:42:25.014Z,97590.75
2023-05-23T09:47:27.226Z,97590.84
2023-05-23T09:52:35.957Z,97590.59
2023-05-23T09:57:41.399Z,97593.75
2023-05-23T10:02:55.120Z,97591.81
2023-05-23T10:08:00.764Z,97585.47
2023-05-23T10:13:05.312Z,97603.16
2023-05-23T10:18:14.345Z,97598.97
2023-05-23T10:23:16.728Z,97612.25
2023-05-23T10:28:18.932Z,97613.84
2023-05-23T10:33:22.512Z,97620.47
2023-05-23T10:38:36.557Z,97627.66
2023-05-23T10:43:57.136Z,97632.31
2023-05-23T10:48:59.080Z,97635.00
2023-05-23T10:54:00.810Z,97623.63
2023-05-23T10:59:06.252Z,97625.75
2023-05-23T11:04:07.891Z,97644.06
2023-05-23T11:09:21.131Z,97640.56
2023-05-23T11:14:38.206Z,97640.81
2023-05-23T11:19:40.136Z,97638.19
2023-05-23T11:24:52.220Z,97631.63
2023-05-23T11:30:04.313Z,97638.75
2023-05-23T11:35:08.357Z,97642.19
2023-05-23T11:40:30.030Z,97647.59
2023-05-23T11:45:32.964Z,97633.03
2023-05-23T11:50:43.228Z,97635.63
2023-05-23T11:56:00.242Z,97636.38
2023-05-23T12:01:03.334Z,97620.34
2023-05-23T12:06:05.134Z,97631.56
2023-05-23T12:11:07.113Z,97637.66
2023-05-23T12:16:08.795Z,97629.19
2023-05-23T12:21:10.494Z,97640.88
2023-05-23T12:26:12.172Z,97636.22
2023-05-23T12:31:22.088Z,97637.09
2023-05-23T12:36:29.638Z,97630.09
2023-05-23T12:41:33.250Z,97644.81
2023-05-23T12:46:34.756Z,97650.06
2023-05-23T12:51:36.595Z,97644.38
2023-05-23T12:56:38.157Z,97648.41
2023-05-23T13:01:39.787Z,97640.22
2023-05-23T13:06:41.281Z,97646.22
2023-05-23T13:11:42.998Z,97651.56
2023-05-23T13:16:45.524Z,97650.97
2023-05-23T13:21:49.380Z,97655.84
2023-05-23T13:26:51.346Z,97662.38
2023-05-23T13:31:53.696Z,97659.00
2023-05-23T13:36:55.626Z,97667.09
2023-05-23T13:41:57.112Z,97671.81
2023-05-23T13:47:12.638Z,97680.91
2023-05-23T13:52:14.918Z,97683.94
2023-05-23T13:57:16.853Z,97683.50
2023-05-23T14:02:18.319Z,97685.84
2023-05-23T14:07:20.486Z,97681.59
2023-05-23T14:12:21.926Z,97693.28
2023-05-23T14:17:23.871Z,97697.44
2023-05-23T14:22:25.441Z,97693.91
2023-05-23T14:27:27.005Z,97702.06
2023-05-23T14:32:28.501Z,97707.97
2023-05-23T14:37:29.958Z,97715.13
2023-05-23T14:42:31.471Z,97725.56
2023-05-23T14:47:33.082Z,97715.66
2023-05-23T14:52:34.594Z,97722.25
2023-05-23T14:57:36.441Z,97727.63
2023-05-23T15:02:37.945Z,97732.03
2023-05-23T15:07:40.315Z,97727.09
2023-05-23T15:12:41.757Z,97726.25
2023-05-23T15:17:43.236Z,97730.66
2023-05-23T15:22:44.747Z,97747.69
2023-05-23T15:27:46.193Z,97733.88
2023-05-23T15:32:48.127Z,97730.41
2023-05-23T15:37:49.682Z,97732.13
2023-05-23T15:42:51.175Z,97731.31
2023-05-23T15:47:52.740Z,97740.63
2023-05-23T15:52:54.249Z,97744.53
2023-05-23T15:57:55.883Z,97745.03
2023-05-23T16:02:57.356Z,97752.50
2023-05-23T16:07:58.887Z,97763.06
2023-05-23T16:13:00.379Z,97764.16
2023-05-23T16:18:03.173Z,97749.06
2023-05-23T16:23:04.877Z,97756.09
2023-05-23T16:28:06.400Z,97760.44
2023-05-23T16:33:07.982Z,97759.19
2023-05-23T16:38:09.689Z,97757.97
2023-05-23T16:43:12.506Z,97753.84
2023-05-23T16:48:14.036Z,97773.00
2023-05-23T16:53:15.625Z,97770.94
2023-05-23T16:58:18.713Z,97776.69
2023-05-23T17:03:21.761Z,97775.63
2023-05-23T17:08:23.291Z,97770.03
2023-05-23T17:13:24.845Z,97780.50
2023-05-23T17:18:26.332Z,97788.13
2023-05-23T17:23:27.904Z,97795.09
2023-05-23T17:28:29.434Z,97812.63
2023-05-23T17:33:30.908Z,97816.34
2023-05-23T17:38:32.594Z,97835.84
2023-05-23T17:43:34.091Z,97841.94
2023-05-23T17:48:47.061Z,97845.63
2023-05-23T17:53:53.397Z,97842.91
2023-05-23T17:58:54.887Z,97853.31
2023-05-23T18:03:56.605Z,97849.53
2023-05-23T18:08:58.115Z,97869.81
2023-05-23T18:13:59.567Z,97863.97
2023-05-23T18:19:01.213Z,97870.09
2023-05-23T18:24:03.941Z,97894.34
2023-05-23T18:29:05.320Z,97866.66
2023-05-23T18:34:06.940Z,97888.06
2023-05-23T18:39:09.117Z,97898.53
2023-05-23T18:44:10.949Z,97894.56
2023-05-23T18:49:12.484Z,97913.81
2023-05-23T18:54:13.968Z,97912.13
2023-05-23T18:59:16.802Z,97928.09
2023-05-23T19:04:18.460Z,97934.41
2023-05-23T19:09:20.234Z,97936.25
2023-05-23T19:14:21.808Z,97941.78
2023-05-23T19:19:23.284Z,97953.75
2023-05-23T19:24:24.828Z,97965.09
2023-05-23T19:29:26.441Z,97972.09
2023-05-23T19:34:28.282Z,97978.75
2023-05-23T19:39:29.734Z,97999.94
2023-05-23T19:44:31.397Z,98003.44
2023-05-23T19:49:32.917Z,98011.84
2023-05-23T19:54:34.563Z,98013.88
2023-05-23T19:59:36.044Z,98020.97
2023-05-23T20:04:37.495Z,98025.50
2023-05-23T20:09:38.940Z,98033.16
2023-05-23T20:14:40.889Z,98042.66
2023-05-23T20:19:42.598Z,98043.69
2023-05-23T20:24:44.066Z,98039.31
2023-05-23T20:29:45.669Z,98049.03
2023-05-23T20:34:47.150Z,98058.03
2023-05-23T20:39:49.206Z,98052.25
2023-05-23T20:44:50.653Z,98052.69
2023-05-23T20:49:52.111Z,98061.75
2023-05-23T20:54:54.421Z,98057.22
2023-05-23T20:59:55.994Z,98066.06
2023-05-23T21:05:00.499Z,98064.41
2023-05-23T21:15:53.983Z,98079.44
2023-05-23T21:20:55.826Z,98083.59
2023-05-23T21:25:57.376Z,98082.78
2023-05-23T21:30:58.832Z,98088.13
2023-05-23T21:36:01.076Z,98077.78
2023-05-23T21:41:02.673Z,98079.81
2023-05-23T21:46:04.180Z,98088.03
2023-05-23T21:51:05.766Z,98075.03
2023-05-23T21:56:07.370Z,98088.19
